createdAt,value
2022-08-09T00:00:11.398Z,101799.44
2022-08-09T00:02:49.051Z,101792.66
2022-08-09T00:06:19.299Z,101797.03
2022-08-09T00:08:04.043Z,101792.44
2022-08-09T00:10:36.716Z,101796.19
2022-08-09T00:13:06.631Z,101792.19
2022-08-09T00:15:58.694Z,101790.13
2022-08-09T00:18:29.728Z,101789.38
2022-08-09T00:20:57.906Z,101785.97
2022-08-09T00:23:54.986Z,101786.47
2022-08-09T00:26:12.136Z,101786.59
2022-08-09T00:28:40.172Z,101779.19
2022-08-09T00:31:50.487Z,101780.28
2022-08-09T00:33:55.165Z,101788.50
2022-08-09T00:36:29.864Z,101787.91
2022-08-09T00:38:57.680Z,101797.59
2022-08-09T00:44:15.132Z,101781.31
2022-08-09T00:44:24.990Z,101787.00
2022-08-09T00:46:56.303Z,101786.63
2022-08-09T00:49:28.487Z,101784.13
2022-08-09T00:51:57.320Z,101780.94
2022-08-09T00:54:31.655Z,101780.31
2022-08-09T00:57:02.401Z,101779.97
2022-08-09T00:59:41.405Z,101778.69
2022-08-09T01:02:19.182Z,101777.94
2022-08-09T01:05:03.621Z,101781.69
2022-08-09T01:08:19.005Z,101785.41
2022-08-09T01:11:20.964Z,101784.66
2022-08-09T01:14:01.971Z,101791.56
2022-08-09T01:16:47.314Z,101795.03
2022-08-09T01:19:40.233Z,101786.94
2022-08-09T01:22:45.458Z,101785.69
2022-08-09T01:25:37.368Z,101790.88
2022-08-09T01:28:09.965Z,101789.66
2022-08-09T01:30:51.463Z,101790.09
2022-08-09T01:33:23.740Z,101791.69
2022-08-09T01:35:59.244Z,101787.66
2022-08-09T01:38:29.863Z,101793.66
2022-08-09T01:41:05.631Z,101789.44
2022-08-09T01:43:50.183Z,101783.47
2022-08-09T01:46:24.167Z,101785.66
2022-08-09T01:48:55.787Z,101784.44
2022-08-09T01:51:26.217Z,101785.72
2022-08-09T01:53:58.115Z,101783.78
2022-08-09T01:56:27.054Z,101791.75
2022-08-09T01:58:55.277Z,101786.44
2022-08-09T02:01:57.928Z,101779.63
2022-08-09T02:04:12.590Z,101786.75
2022-08-09T02:07:02.533Z,101792.31
2022-08-09T02:09:42.206Z,101801.31
2022-08-09T02:12:11.481Z,101797.09
2022-08-09T02:14:51.578Z,101791.97
2022-08-09T02:17:54.926Z,101792.41
2022-08-09T02:20:10.435Z,101796.97
2022-08-09T02:22:45.683Z,101794.66
2022-08-09T02:25:18.672Z,101798.13
2022-08-09T02:28:00.470Z,101803.50
2022-08-09T02:30:37.385Z,101803.56
2022-08-09T02:33:08.045Z,101800.41
2022-08-09T02:36:03.262Z,101804.72
2022-08-09T02:38:34.920Z,101809.88
2022-08-09T02:41:09.336Z,101810.53
2022-08-09T02:43:42.384Z,101809.09
2022-08-09T02:46:24.221Z,101814.25
2022-08-09T02:48:52.831Z,101815.31
2022-08-09T02:51:23.144Z,101807.91
2022-08-09T02:54:00.957Z,101820.53
2022-08-09T02:56:31.663Z,101803.25
2022-08-09T02:59:02.032Z,101809.25
2022-08-09T03:01:43.314Z,101815.25
2022-08-09T03:04:19.837Z,101815.72
2022-08-09T03:06:48.831Z,101811.69
2022-08-09T03:09:16.437Z,101813.00
2022-08-09T03:12:09.593Z,101809.34
2022-08-09T03:14:32.125Z,101809.81
2022-08-09T03:17:01.531Z,101805.31
2022-08-09T03:19:58.277Z,101806.84
2022-08-09T03:22:25.077Z,101809.00
2022-08-09T03:25:06.652Z,101803.88
2022-08-09T03:27:47.076Z,101805.19
2022-08-09T03:30:29.932Z,101804.34
2022-08-09T03:33:13.131Z,101805.44
2022-08-09T03:36:15.664Z,101812.25
2022-08-09T03:38:32.616Z,101805.25
2022-08-09T03:40:59.309Z,101813.78
2022-08-09T03:43:31.674Z,101811.25
2022-08-09T03:46:04.065Z,101820.63
2022-08-09T03:48:51.901Z,101822.97
2022-08-09T03:51:57.792Z,101824.91
2022-08-09T03:54:10.879Z,101833.88
2022-08-09T03:56:41.344Z,101839.44
2022-08-09T03:59:17.047Z,101840.75
2022-08-09T04:01:50.512Z,101843.97
2022-08-09T04:04:18.118Z,101850.41
2022-08-09T04:06:49.185Z,101851.69
2022-08-09T04:09:47.883Z,101848.03
2022-08-09T04:12:11.926Z,101856.38
2022-08-09T04:15:00.682Z,101849.16
2022-08-09T04:17:25.906Z,101855.75
2022-08-09T04:19:56.314Z,101855.53
2022-08-09T04:22:22.904Z,101860.84
2022-08-09T04:24:49.304Z,101861.50
2022-08-09T04:27:17.296Z,101873.44
2022-08-09T04:29:49.924Z,101863.19
2022-08-09T04:32:17.099Z,101862.13
2022-08-09T04:34:58.066Z,101868.53
2022-08-09T04:37:45.647Z,101872.16
2022-08-09T04:40:28.755Z,101878.78
2022-08-09T04:43:00.533Z,101878.78
2022-08-09T04:45:28.395Z,101887.72
2022-08-09T04:48:04.052Z,101881.34
2022-08-09T04:50:35.054Z,101894.97
2022-08-09T04:53:12.965Z,101888.56
2022-08-09T04:55:57.369Z,101895.84
2022-08-09T04:58:24.091Z,101897.75
2022-08-09T05:00:52.121Z,101898.81
2022-08-09T05:03:39.898Z,101895.84
2022-08-09T05:06:08.532Z,101896.91
2022-08-09T05:08:35.498Z,101902.25
2022-08-09T05:11:03.402Z,101903.09
2022-08-09T05:13:33.841Z,101908.66
2022-08-09T05:16:01.044Z,101909.50
2022-08-09T05:18:39.387Z,101910.97
2022-08-09T05:21:23.250Z,101918.44
2022-08-09T05:23:59.720Z,101921.22
2022-08-09T05:26:36.079Z,101918.66
2022-08-09T05:29:04.354Z,101924.66
2022-08-09T05:31:44.099Z,101929.09
2022-08-09T05:34:16.889Z,101923.09
2022-08-09T05:36:47.200Z,101918.22
2022-08-09T05:39:28.477Z,101915.66
2022-08-09T05:41:56.589Z,101914.13
2022-08-09T05:44:32.220Z,101911.75
2022-08-09T05:46:59.260Z,101918.34
2022-08-09T05:50:24.511Z,101917.47
2022-08-09T05:52:13.726Z,101929.78
2022-08-09T05:54:41.829Z,101917.34
2022-08-09T05:57:12.811Z,101905.75
2022-08-09T05:59:44.075Z,101910.81
2022-08-09T06:02:11.779Z,101909.25
2022-08-09T06:04:44.766Z,101908.50
2022-08-09T06:07:21.714Z,101912.25
2022-08-09T06:10:02.094Z,101927.56
2022-08-09T06:12:29.957Z,101917.91
2022-08-09T06:15:00.978Z,101916.06
2022-08-09T06:17:40.260Z,101919.19
2022-08-09T06:20:08.054Z,101918.44
2022-08-09T06:22:34.933Z,101915.97
2022-08-09T06:25:01.685Z,101917.97
2022-08-09T06:27:42.974Z,101913.56
2022-08-09T06:30:16.123Z,101908.06
2022-08-09T06:33:00.960Z,101912.38
2022-08-09T06:35:56.425Z,101904.13
2022-08-09T06:38:17.423Z,101909.75
2022-08-09T06:40:45.820Z,101904.22
2022-08-09T06:43:13.490Z,101905.34
2022-08-09T06:46:06.031Z,101912.03
2022-08-09T06:48:30.927Z,101911.69
2022-08-09T06:50:59.144Z,101908.09
2022-08-09T06:53:25.635Z,101915.25
2022-08-09T06:55:52.640Z,101909.31
2022-08-09T06:58:40.937Z,101904.88
2022-08-09T07:01:06.072Z,101912.66
2022-08-09T07:03:39.585Z,101912.28
2022-08-09T07:06:18.940Z,101913.59
2022-08-09T07:08:46.693Z,101911.53
2022-08-09T07:11:23.558Z,101914.81
2022-08-09T07:14:04.791Z,101913.38
2022-08-09T07:16:42.754Z,101908.00
2022-08-09T07:19:23.100Z,101910.16
2022-08-09T07:21:56.974Z,101905.66
2022-08-09T07:24:32.357Z,101906.41
2022-08-09T07:27:11.172Z,101902.97
2022-08-09T07:29:57.086Z,101901.97
2022-08-09T07:32:33.323Z,101901.59
2022-08-09T07:35:02.719Z,101900.34
2022-08-09T07:37:43.542Z,101899.94
2022-08-09T07:40:17.499Z,101900.75
2022-08-09T07:42:57.541Z,101893.91
2022-08-09T07:45:40.393Z,101884.72
2022-08-09T07:48:25.640Z,101886.53
2022-08-09T07:51:09.135Z,101888.88
2022-08-09T07:54:07.801Z,101890.47
2022-08-09T07:56:44.755Z,101890.66
2022-08-09T07:59:34.198Z,101883.50
2022-08-09T08:02:04.833Z,101886.50
2022-08-09T08:04:32.684Z,101872.06
2022-08-09T08:07:14.717Z,101877.56
2022-08-09T08:09:55.122Z,101872.38
2022-08-09T08:12:34.199Z,101866.38
2022-08-09T08:15:00.782Z,101868.25
2022-08-09T08:17:52.358Z,101859.47
2022-08-09T08:20:14.177Z,101855.19
2022-08-09T08:22:41.254Z,101857.00
2022-08-09T08:25:13.633Z,101851.50
2022-08-09T08:27:42.904Z,101853.31
2022-08-09T08:30:11.697Z,101853.41
2022-08-09T08:32:52.133Z,101850.47
2022-08-09T08:35:20.086Z,101844.69
2022-08-09T08:37:59.483Z,101840.63
2022-08-09T08:40:29.529Z,101838.75
2022-08-09T08:42:58.783Z,101840.50
2022-08-09T08:45:43.188Z,101839.47
2022-08-09T08:48:19.611Z,101834.78
2022-08-09T08:50:49.184Z,101844.13
2022-08-09T08:53:21.828Z,101848.16
2022-08-09T08:55:48.902Z,101847.91
2022-08-09T08:58:27.041Z,101847.69
2022-08-09T09:00:57.077Z,101845.78
2022-08-09T09:03:33.255Z,101847.53
2022-08-09T09:06:05.793Z,101848.44
2022-08-09T09:08:40.206Z,101836.69
2022-08-09T09:11:13.692Z,101843.47
2022-08-09T09:13:56.489Z,101844.63
2022-08-09T09:16:35.066Z,101843.53
2022-08-09T09:19:40.161Z,101841.88
2022-08-09T09:22:11.459Z,101831.22
2022-08-09T09:24:49.878Z,101839.69
2022-08-09T09:28:05.271Z,101833.47
2022-08-09T09:30:33.043Z,101836.28
2022-08-09T09:33:15.472Z,101831.19
2022-08-09T09:36:02.626Z,101825.81
2022-08-09T09:38:45.131Z,101824.69
2022-08-09T09:41:28.043Z,101821.28
2022-08-09T09:44:12.890Z,101823.78
2022-08-09T09:46:45.887Z,101818.69
2022-08-09T09:49:31.717Z,101821.44
2022-08-09T09:52:16.340Z,101814.59
2022-08-09T09:55:16.191Z,101817.91
2022-08-09T09:58:16.922Z,101814.44
2022-08-09T10:00:54.147Z,101822.00
2022-08-09T10:03:56.460Z,101823.06
2022-08-09T10:06:42.689Z,101818.75
2022-08-09T10:09:22.639Z,101818.06
2022-08-09T10:12:14.692Z,101812.38
2022-08-09T10:14:48.682Z,101815.59
2022-08-09T10:17:51.445Z,101807.56
2022-08-09T10:20:35.462Z,101803.44
2022-08-09T10:23:23.655Z,101798.19
2022-08-09T10:26:07.072Z,101794.09
2022-08-09T10:28:39.933Z,101790.75
2022-08-09T10:34:08.782Z,101799.00
2022-08-09T10:36:42.734Z,101791.13
2022-08-09T10:39:16.200Z,101787.78
2022-08-09T10:41:47.558Z,101783.94
2022-08-09T10:44:21.619Z,101773.53
2022-08-09T10:48:17.203Z,101773.63
2022-08-09T10:50:32.814Z,101775.03
2022-08-09T10:53:10.349Z,101778.13
2022-08-09T10:55:57.849Z,101772.41
2022-08-09T10:58:33.922Z,101764.34
2022-08-09T11:03:07.316Z,101771.19
2022-08-09T11:04:20.106Z,101766.34
2022-08-09T11:07:01.121Z,101752.97
2022-08-09T11:09:48.752Z,101760.66
2022-08-09T11:12:17.388Z,101754.22
2022-08-09T11:14:57.568Z,101762.19
2022-08-09T11:17:26.665Z,101755.00
2022-08-09T11:20:19.910Z,101742.72
2022-08-09T11:22:57.102Z,101737.84
2022-08-09T11:25:44.470Z,101746.81
2022-08-09T11:28:54.100Z,101754.94
2022-08-09T11:31:43.093Z,101750.28
2022-08-09T11:34:17.648Z,101740.22
2022-08-09T11:36:45.475Z,101737.44
2022-08-09T11:39:12.126Z,101741.00
2022-08-09T11:41:40.704Z,101741.06
2022-08-09T11:44:08.245Z,101741.63
2022-08-09T11:46:55.654Z,101734.25
2022-08-09T11:50:56.996Z,101724.22
2022-08-09T11:53:28.230Z,101715.22
2022-08-09T11:55:53.505Z,101732.66
2022-08-09T11:58:33.224Z,101717.13
2022-08-09T12:01:08.790Z,101694.84
2022-08-09T12:03:56.006Z,101711.41
2022-08-09T12:06:32.542Z,101708.72
2022-08-09T12:09:17.548Z,101706.34
2022-08-09T12:12:02.219Z,101706.34
2022-08-09T12:14:40.553Z,101693.28
2022-08-09T12:17:27.614Z,101689.06
2022-08-09T12:20:12.183Z,101701.22
2022-08-09T12:22:44.303Z,101678.03
2022-08-09T12:25:15.879Z,101690.22
2022-08-09T12:29:11.489Z,101688.75
2022-08-09T12:30:35.238Z,101683.19
2022-08-09T12:33:04.498Z,101680.63
2022-08-09T12:35:36.024Z,101666.66
2022-08-09T12:38:29.500Z,101664.81
2022-08-09T12:41:04.610Z,101663.19
2022-08-09T12:44:06.705Z,101667.78
2022-08-09T12:46:21.252Z,101666.50
2022-08-09T12:48:49.102Z,101666.44
2022-08-09T12:51:30.300Z,101652.81
2022-08-09T12:54:06.903Z,101659.84
2022-08-09T12:56:48.448Z,101646.81
2022-08-09T12:59:20.508Z,101643.25
2022-08-09T13:02:09.368Z,101643.63
2022-08-09T13:04:38.846Z,101639.56
2022-08-09T13:07:19.386Z,101642.28
2022-08-09T13:09:55.010Z,101624.28
2022-08-09T13:12:26.798Z,101636.19
2022-08-09T13:15:07.316Z,101629.78
2022-08-09T13:18:02.819Z,101648.06
2022-08-09T13:20:37.354Z,101637.44
2022-08-09T13:24:07.361Z,101633.72
2022-08-09T13:26:05.516Z,101626.00
2022-08-09T13:28:35.689Z,101613.78
2022-08-09T13:32:16.569Z,101603.78
2022-08-09T13:33:58.662Z,101601.78
2022-08-09T13:36:42.359Z,101602.78
2022-08-09T13:41:56.658Z,101603.81
2022-08-09T13:42:02.160Z,101602.31
2022-08-09T13:44:29.158Z,101611.84
2022-08-09T13:47:26.425Z,101603.63
2022-08-09T13:50:01.015Z,101607.06
2022-08-09T13:52:29.244Z,101600.97
2022-08-09T13:54:59.763Z,101607.31
2022-08-09T13:57:35.554Z,101610.06
2022-08-09T14:00:13.930Z,101617.75
2022-08-09T14:03:03.366Z,101604.88
2022-08-09T14:05:58.520Z,101603.81
2022-08-09T14:08:18.528Z,101595.78
2022-08-09T14:10:51.961Z,101600.34
2022-08-09T14:13:21.524Z,101594.41
2022-08-09T14:16:06.890Z,101600.34
2022-08-09T14:18:37.383Z,101593.63
2022-08-09T14:21:04.023Z,101593.59
2022-08-09T14:23:40.103Z,101592.44
2022-08-09T14:26:13.492Z,101592.50
2022-08-09T14:28:40.023Z,101586.50
2022-08-09T14:31:07.373Z,101580.41
2022-08-09T14:33:38.242Z,101573.28
2022-08-09T14:36:19.796Z,101575.59
2022-08-09T14:38:52.582Z,101568.41
2022-08-09T14:41:34.850Z,101554.31
2022-08-09T14:44:06.971Z,101550.91
2022-08-09T14:46:54.919Z,101572.56
2022-08-09T14:49:24.485Z,101569.03
2022-08-09T14:51:51.386Z,101569.44
2022-08-09T14:54:28.252Z,101579.69
2022-08-09T14:56:58.985Z,101578.97
2022-08-09T14:59:27.431Z,101577.13
2022-08-09T15:01:55.552Z,101578.00
2022-08-09T15:04:23.505Z,101560.81
2022-08-09T15:06:50.646Z,101565.63
2022-08-09T15:09:52.003Z,101559.72
2022-08-09T15:12:08.202Z,101567.91
2022-08-09T15:14:38.278Z,101562.66
2022-08-09T15:17:07.712Z,101562.72
2022-08-09T15:19:36.577Z,101563.75
2022-08-09T15:22:03.719Z,101568.63
2022-08-09T15:24:30.279Z,101552.59
2022-08-09T15:26:57.757Z,101546.41
2022-08-09T15:30:55.673Z,101547.50
2022-08-09T15:32:29.027Z,101549.59
2022-08-09T15:34:59.863Z,101546.28
2022-08-09T15:37:57.329Z,101542.19
2022-08-09T15:40:32.058Z,101536.41
2022-08-09T15:42:59.893Z,101536.19
2022-08-09T15:45:29.332Z,101529.59
2022-08-09T15:48:06.525Z,101527.84
2022-08-09T15:50:44.010Z,101521.25
2022-08-09T15:54:02.091Z,101525.06
2022-08-09T15:56:21.466Z,101524.50
2022-08-09T15:58:44.881Z,101523.88
2022-08-09T16:01:13.365Z,101528.53
2022-08-09T16:03:41.726Z,101519.78
2022-08-09T16:06:29.307Z,101515.72
2022-08-09T16:08:56.053Z,101513.75
2022-08-09T16:11:22.690Z,101511.75
2022-08-09T16:14:03.978Z,101519.06
2022-08-09T16:16:32.665Z,101512.81
2022-08-09T16:19:01.257Z,101519.91
2022-08-09T16:21:31.518Z,101518.84
2022-08-09T16:24:02.875Z,101512.75
2022-08-09T16:26:35.237Z,101513.94
2022-08-09T16:29:14.434Z,101513.88
2022-08-09T16:32:20.020Z,101519.41
2022-08-09T16:34:53.518Z,101516.59
2022-08-09T16:37:16.582Z,101512.78
2022-08-09T16:39:54.783Z,101519.44
2022-08-09T16:42:29.404Z,101514.38
2022-08-09T16:44:55.911Z,101519.78
2022-08-09T16:48:38.747Z,101523.53
2022-08-09T16:50:32.231Z,101525.97
2022-08-09T16:52:55.917Z,101526.13
2022-08-09T16:55:22.613Z,101531.38
2022-08-09T16:58:08.791Z,101526.94
2022-08-09T17:00:36.644Z,101526.47
2022-08-09T17:03:05.185Z,101526.53
2022-08-09T17:06:07.277Z,101529.94
2022-08-09T17:08:46.752Z,101529.16
2022-08-09T17:11:06.522Z,101537.63
2022-08-09T17:13:34.441Z,101542.19
2022-08-09T17:16:02.454Z,101532.28
2022-08-09T17:18:29.860Z,101535.94
2022-08-09T17:20:57.020Z,101536.41
2022-08-09T17:23:23.819Z,101530.22
2022-08-09T17:26:10.402Z,101533.28
2022-08-09T17:28:38.965Z,101534.91
2022-08-09T17:31:05.772Z,101537.72
2022-08-09T17:33:36.087Z,101538.38
2022-08-09T17:36:05.317Z,101548.25
2022-08-09T17:38:38.647Z,101541.09
2022-08-09T17:41:06.321Z,101551.31
2022-08-09T17:43:37.653Z,101540.03
2022-08-09T17:46:09.252Z,101544.75
2022-08-09T17:48:39.369Z,101547.72
2022-08-09T17:51:18.150Z,101543.09
2022-08-09T17:53:48.236Z,101547.56
2022-08-09T17:56:21.612Z,101552.50
2022-08-09T17:58:48.103Z,101554.06
2022-08-09T18:01:15.681Z,101564.19
2022-08-09T18:03:49.432Z,101556.38
2022-08-09T18:06:30.914Z,101557.75
2022-08-09T18:09:01.063Z,101550.63
2022-08-09T18:11:27.500Z,101555.47
2022-08-09T18:14:02.515Z,101553.50
2022-08-09T18:16:30.753Z,101556.22
2022-08-09T18:18:59.458Z,101557.63
2022-08-09T18:21:31.848Z,101552.91
2022-08-09T18:24:14.471Z,101565.50
2022-08-09T18:26:46.735Z,101563.84
2022-08-09T18:30:42.990Z,101574.53
2022-08-09T18:32:03.998Z,101572.84
2022-08-09T18:34:34.989Z,101564.78
2022-08-09T18:37:03.681Z,101577.25
2022-08-09T18:39:32.705Z,101577.69
2022-08-09T18:42:01.683Z,101578.31
2022-08-09T18:44:28.161Z,101584.44
2022-08-09T18:47:04.927Z,101589.25
2022-08-09T18:49:43.748Z,101592.00
2022-08-09T18:52:16.125Z,101589.25
2022-08-09T18:54:52.868Z,101588.81
2022-08-09T18:57:22.196Z,101594.69
2022-08-09T18:59:55.415Z,101600.50
2022-08-09T19:02:32.188Z,101598.78
2022-08-09T19:05:15.312Z,101607.69
2022-08-09T19:08:04.768Z,101606.41
2022-08-09T19:10:37.468Z,101616.69
2022-08-09T19:13:22.936Z,101622.88
2022-08-09T19:15:56.782Z,101629.38
2022-08-09T19:18:35.673Z,101627.88
2022-08-09T19:21:09.818Z,101637.16
2022-08-09T19:24:37.779Z,101638.19
2022-08-09T19:26:31.392Z,101637.09
2022-08-09T19:29:09.534Z,101641.88
2022-08-09T19:31:46.238Z,101644.06
2022-08-09T19:34:21.886Z,101644.25
2022-08-09T19:36:54.234Z,101656.63
2022-08-09T19:39:43.773Z,101650.34
2022-08-09T19:42:08.808Z,101656.41
2022-08-09T19:44:35.422Z,101662.19
2022-08-09T19:47:02.615Z,101665.97
2022-08-09T19:50:09.647Z,101670.31
2022-08-09T19:52:18.130Z,101675.25
2022-08-09T19:54:44.789Z,101674.75
2022-08-09T19:57:11.247Z,101682.75
2022-08-09T19:59:57.640Z,101676.28
2022-08-09T20:04:12.665Z,101682.59
2022-08-09T20:05:14.552Z,101682.63
2022-08-09T20:08:00.168Z,101687.19
2022-08-09T20:10:36.206Z,101678.19
2022-08-09T20:13:06.305Z,101686.09
2022-08-09T20:16:32.974Z,101680.44
2022-08-09T20:18:22.521Z,101685.84
2022-08-09T20:20:50.343Z,101692.34
2022-08-09T20:23:20.994Z,101698.59
2022-08-09T20:25:51.393Z,101695.19
2022-08-09T20:28:27.484Z,101689.31
2022-08-09T20:30:54.734Z,101693.56
2022-08-09T20:33:21.677Z,101693.59
2022-08-09T20:35:51.675Z,101701.00
2022-08-09T20:38:33.116Z,101695.97
2022-08-09T20:41:05.580Z,101709.03
2022-08-09T20:43:32.533Z,101703.44
2022-08-09T20:46:15.217Z,101711.31
2022-08-09T20:48:45.365Z,101721.00
2022-08-09T20:51:19.308Z,101730.09
2022-08-09T20:53:46.402Z,101718.84
2022-08-09T20:56:20.992Z,101723.97
2022-08-09T20:58:49.101Z,101723.19
2022-08-09T21:01:35.267Z,101725.19
2022-08-09T21:05:48.528Z,101735.34
2022-08-09T21:06:50.505Z,101726.97
2022-08-09T21:09:32.712Z,101733.47
2022-08-09T21:14:33.823Z,101730.97
2022-08-09T21:17:02.437Z,101734.94
2022-08-09T21:20:17.550Z,101736.63
2022-08-09T21:22:41.242Z,101735.50
2022-08-09T21:25:27.413Z,101734.94
2022-08-09T21:28:04.959Z,101742.81
2022-08-09T21:30:37.078Z,101734.66
2022-08-09T21:33:08.160Z,101740.00
2022-08-09T21:35:39.486Z,101733.25
2022-08-09T21:38:30.878Z,101733.22
2022-08-09T21:40:59.124Z,101741.38
2022-08-09T21:43:56.256Z,101730.63
2022-08-09T21:46:12.029Z,101730.31
2022-08-09T21:48:42.630Z,101741.00
2022-08-09T21:51:24.260Z,101750.50
2022-08-09T21:54:02.507Z,101755.25
2022-08-09T21:56:43.303Z,101760.53
2022-08-09T21:59:11.565Z,101764.16
2022-08-09T22:01:58.881Z,101757.94
2022-08-09T22:04:37.585Z,101758.16
2022-08-09T22:07:14.359Z,101761.47
2022-08-09T22:09:59.992Z,101760.88
2022-08-09T22:12:30.795Z,101760.84
2022-08-09T22:14:58.069Z,101761.94
2022-08-09T22:17:24.503Z,101761.88
2022-08-09T22:19:58.353Z,101763.81
2022-08-09T22:22:25.982Z,101761.81
2022-08-09T22:24:53.628Z,101754.75
2022-08-09T22:27:39.070Z,101755.84
2022-08-09T22:30:07.622Z,101763.34
2022-08-09T22:32:34.695Z,101767.50
2022-08-09T22:35:06.621Z,101761.53
2022-08-09T22:37:49.639Z,101772.06
2022-08-09T22:40:34.187Z,101768.03
2022-08-09T22:43:01.058Z,101774.09
2022-08-09T22:48:14.402Z,101764.22
2022-08-09T22:48:35.454Z,101777.34
2022-08-09T22:51:02.232Z,101774.47
2022-08-09T22:53:58.235Z,101781.16
2022-08-09T22:56:30.945Z,101769.88
2022-08-09T22:59:06.148Z,101773.72
2022-08-09T23:01:48.660Z,101774.19
2022-08-09T23:04:15.124Z,101772.41
2022-08-09T23:07:01.528Z,101772.63
2022-08-09T23:09:27.960Z,101770.28
2022-08-09T23:14:23.457Z,101770.97
2022-08-09T23:17:04.323Z,101773.72
2022-08-09T23:19:30.769Z,101781.53
2022-08-09T23:22:17.365Z,101773.66
2022-08-09T23:24:44.019Z,101780.63
2022-08-09T23:27:15.233Z,101774.09
2022-08-09T23:29:41.675Z,101775.78
2022-08-09T23:32:08.088Z,101780.28
2022-08-09T23:34:34.534Z,101786.97
2022-08-09T23:37:00.961Z,101779.69
2022-08-09T23:39:27.453Z,101781.91
2022-08-09T23:41:53.971Z,101786.91
2022-08-09T23:44:20.584Z,101786.84
2022-08-09T23:46:48.711Z,101787.03
2022-08-09T23:49:24.651Z,101794.75
2022-08-09T23:51:52.206Z,101789.94
2022-08-09T23:54:19.874Z,101794.91
2022-08-09T23:56:54.487Z,101794.88
2022-08-09T23:59:23.385Z,101790.25
